Bolzano, Italy

9:19 AM CEST on October 22, 2014 (GMT +0200)
Bolzano | Change Station
CLOSE
Current Station
Airport
Location: Bolzano,
Elevation: 791 ft
Nearby Weather Stations

Elev 791 ft 46.46 °N, 11.33 °E | Updated 29 minutes ago

Mostly Cloudy
Mostly Cloudy
55 °F
Feels Like 55 °F
N
9
Wind Variable Wind from Variable

Today
High -- | Low -- °F
--% Chance of Precip.
Yesterday
High -- | Low -- °F
Precip. -- in
7:41 AM 6:16 PM
Waning Crescent, 3% visible
Pressure 29.77 in
Visibility 6.2 miles
Clouds Scattered Clouds 8000 ft
Mostly Cloudy 11000 ft
Dew Point 27 °F
Humidity 33%
Rainfall 0.00 in
Snow Depth Not available.
UV 0 out of 12
Pollen Not available.
Air Quality Not available.
Flu Activity Not available.
METAR LIPB 220650Z VRB08KT 9999 SCT080 BKN110 13/M03 Q1008

More Conditions Fewer Conditions

Pressure 29.77 in
Visibility 6.2 miles
Clouds Scattered Clouds 8000 ft
Mostly Cloudy 11000 ft
Dew Point 27 °F
Humidity 33%
Rainfall 0.00 in
Snow Depth Not available.
UV 0 out of 12
Pollen Not available.
Air Quality Not available.
Flu Activity Not available.
METAR LIPB 220650Z VRB08KT 9999 SCT080 BKN110 13/M03 Q1008

More Conditions Fewer Conditions

10-Day Weather Forecast

Almanac

Astronomy

Oct. 22, 2014 Rise Set
Actual Time 7:41 AM CEST 6:16 PM CEST
Civil Twilight 7:10 AM CEST 6:46 PM CEST
Nautical Twilight 6:35 AM CEST 7:21 PM CEST
Astronomical Twilight 6:00 AM CEST 7:56 PM CEST
Moon 6:01 AM CEST 5:37 PM CEST
Length of Visible Light 11h 36m
Length of Day
10h 34m
Tomorrow will be 3m 7s shorter.
Waning Crescent, 3% of the Moon is Illuminated
Today
Waning Crescent
Oct 23
New
Oct 30
First Quarter
Nov 6
Full
Nov 14
Last Quarter

Yesterday's Extremes

Country Highs Country Lows

Community

WunderPhotos

Upload Photos

1,763,890 photos uploaded!

Nearby

Snow Depth

Not available.

Earthquake Activity

City Distance Mag. Time & Date
No recent earthquake activity has been reported nearby.
Minimum magnitude displayed is 2.5.

Coastal Water Temperatures

Place Temperature
No Stations Reporting

Nearby Weather Stations